createdAt,value
2023-03-26T00:01:15.501Z,15.57
2023-03-26T00:03:44.848Z,11.90
2023-03-26T00:06:13.456Z,11.95
2023-03-26T00:08:41.611Z,12.98
2023-03-26T00:11:10.504Z,15.35
2023-03-26T00:13:37.769Z,15.93
2023-03-26T00:16:05.276Z,11.00
2023-03-26T00:18:35.374Z,12.75
2023-03-26T00:21:04.478Z,11.25
2023-03-26T00:23:35.806Z,8.98
2023-03-26T00:26:03.711Z,20.67
2023-03-26T00:28:31.490Z,13.02
2023-03-26T00:31:06.039Z,12.55
2023-03-26T00:33:38.214Z,8.98
2023-03-26T00:36:06.530Z,11.13
2023-03-26T00:38:38.711Z,12.30
2023-03-26T00:41:07.052Z,10.05
2023-03-26T00:43:36.584Z,12.70
2023-03-26T00:46:04.276Z,9.27
2023-03-26T00:48:44.102Z,9.43
2023-03-26T00:51:15.247Z,12.82
2023-03-26T00:53:42.997Z,8.43
2023-03-26T00:56:13.279Z,10.65
2023-03-26T00:58:40.792Z,9.70
2023-03-26T01:01:10.383Z,14.32
2023-03-26T01:03:38.908Z,8.80
2023-03-26T01:06:09.898Z,7.80
2023-03-26T01:08:47.367Z,11.43
2023-03-26T01:11:14.540Z,8.85
2023-03-26T01:13:47.406Z,8.10
2023-03-26T01:16:37.129Z,11.98
2023-03-26T01:19:20.594Z,13.20
2023-03-26T01:21:47.818Z,10.73
2023-03-26T01:24:15.026Z,8.07
2023-03-26T01:26:45.092Z,8.45
2023-03-26T01:29:24.059Z,9.13
2023-03-26T01:31:59.904Z,8.75
2023-03-26T01:34:47.096Z,9.57
2023-03-26T01:37:23.076Z,9.07
2023-03-26T01:39:53.457Z,7.68
2023-03-26T01:42:39.734Z,6.93
2023-03-26T01:45:09.715Z,12.05
2023-03-26T01:47:38.465Z,10.70
2023-03-26T01:50:05.862Z,9.13
2023-03-26T01:52:33.257Z,9.00
2023-03-26T01:55:00.660Z,8.98
2023-03-26T01:57:35.806Z,7.38
2023-03-26T02:00:07.244Z,8.25
2023-03-26T02:03:17.534Z,9.32
2023-03-26T02:05:49.855Z,7.85
2023-03-26T02:08:23.136Z,9.13
2023-03-26T02:10:53.238Z,7.22
2023-03-26T02:13:20.911Z,7.13
2023-03-26T02:15:58.902Z,8.23
2023-03-26T02:18:36.381Z,9.30
2023-03-26T02:21:05.492Z,8.07
2023-03-26T02:23:36.090Z,6.53
2023-03-26T02:26:05.882Z,10.30
2023-03-26T02:28:33.874Z,9.20
2023-03-26T02:31:01.949Z,7.47
2023-03-26T02:33:29.745Z,8.68
2023-03-26T02:36:01.947Z,7.57
2023-03-26T02:38:30.101Z,11.55
2023-03-26T02:40:57.468Z,8.68
2023-03-26T02:43:24.666Z,7.20
2023-03-26T02:45:52.194Z,8.48
2023-03-26T02:48:20.277Z,7.68
2023-03-26T02:50:50.073Z,7.07
2023-03-26T02:53:17.588Z,7.75
2023-03-26T02:55:44.777Z,9.02
2023-03-26T02:58:12.515Z,5.95
2023-03-26T03:00:40.109Z,7.43
2023-03-26T03:03:09.477Z,7.35
2023-03-26T03:05:38.093Z,6.55
2023-03-26T03:08:05.967Z,6.25
2023-03-26T03:10:33.439Z,9.00
2023-03-26T03:13:00.691Z,6.63
2023-03-26T03:15:31.137Z,7.15
2023-03-26T03:17:58.329Z,5.47
2023-03-26T03:20:26.506Z,8.63
2023-03-26T03:22:53.799Z,7.78
2023-03-26T03:25:22.231Z,8.30
2023-03-26T03:27:50.228Z,8.52
2023-03-26T03:30:17.672Z,6.50
2023-03-26T03:32:44.926Z,6.82
2023-03-26T03:35:12.199Z,5.88
2023-03-26T03:37:39.467Z,6.18
2023-03-26T03:40:10.228Z,6.43
2023-03-26T03:42:37.781Z,7.90
2023-03-26T03:45:06.344Z,6.68
2023-03-26T03:47:33.625Z,6.50
2023-03-26T03:50:00.942Z,6.18
2023-03-26T03:52:28.400Z,7.97
2023-03-26T03:55:00.426Z,8.60
2023-03-26T03:57:28.544Z,6.78
2023-03-26T03:59:58.738Z,7.28
2023-03-26T04:02:30.398Z,7.50
2023-03-26T04:04:58.149Z,5.68
2023-03-26T04:07:26.123Z,5.72
2023-03-26T04:09:53.389Z,5.68
2023-03-26T04:12:20.670Z,5.55
2023-03-26T04:14:47.895Z,5.55
2023-03-26T04:17:15.596Z,5.65
2023-03-26T04:19:44.158Z,4.78
2023-03-26T04:22:11.967Z,9.13
2023-03-26T04:24:42.283Z,6.55
2023-03-26T04:27:13.005Z,8.07
2023-03-26T04:29:45.455Z,6.70
2023-03-26T04:32:14.886Z,4.78
2023-03-26T04:34:45.986Z,5.20
2023-03-26T04:37:43.250Z,5.65
2023-03-26T04:40:18.573Z,5.47
2023-03-26T04:42:46.336Z,5.57
2023-03-26T04:45:22.483Z,4.97
2023-03-26T04:47:50.581Z,5.47
2023-03-26T04:50:18.409Z,5.68
2023-03-26T04:52:45.938Z,4.65
2023-03-26T04:55:25.181Z,5.22
2023-03-26T04:57:57.235Z,5.10
2023-03-26T05:00:25.392Z,5.50
2023-03-26T05:02:55.914Z,5.60
2023-03-26T05:05:23.395Z,5.43
2023-03-26T05:07:50.651Z,4.78
2023-03-26T05:10:20.442Z,5.50
2023-03-26T05:12:47.683Z,8.68
2023-03-26T05:15:15.772Z,5.03
2023-03-26T05:17:43.274Z,6.22
2023-03-26T05:20:21.470Z,5.07
2023-03-26T05:22:52.054Z,8.02
2023-03-26T05:25:19.788Z,7.65
2023-03-26T05:27:47.017Z,5.15
2023-03-26T05:30:16.060Z,5.45
2023-03-26T05:32:43.678Z,5.43
2023-03-26T05:35:12.636Z,4.82
2023-03-26T05:37:40.000Z,5.95
2023-03-26T05:40:12.251Z,6.13
2023-03-26T05:42:39.994Z,6.20
2023-03-26T05:45:08.083Z,6.25
2023-03-26T05:47:35.447Z,3.92
2023-03-26T05:50:02.796Z,5.32
2023-03-26T05:52:30.054Z,4.22
2023-03-26T05:54:57.339Z,4.60
2023-03-26T05:57:28.461Z,5.95
2023-03-26T05:59:56.364Z,4.35
2023-03-26T06:02:23.903Z,5.05
2023-03-26T06:04:51.271Z,5.30
2023-03-26T06:07:19.707Z,4.55
2023-03-26T06:09:46.990Z,4.95
2023-03-26T06:12:14.280Z,4.47
2023-03-26T06:14:45.753Z,4.13
2023-03-26T06:17:12.982Z,5.72
2023-03-26T06:19:40.376Z,4.10
2023-03-26T06:22:07.596Z,6.38
2023-03-26T06:24:34.965Z,5.32
2023-03-26T06:27:02.240Z,5.95
2023-03-26T06:29:29.381Z,4.10
2023-03-26T06:32:01.432Z,4.57
2023-03-26T06:34:33.555Z,3.72
2023-03-26T06:37:00.915Z,4.80
2023-03-26T06:39:28.303Z,3.90
2023-03-26T06:41:55.556Z,4.70
2023-03-26T06:44:22.789Z,5.30
2023-03-26T06:46:50.231Z,4.70
2023-03-26T06:49:17.492Z,4.05
2023-03-26T06:51:46.391Z,5.55
2023-03-26T06:54:13.986Z,4.93
2023-03-26T06:56:41.339Z,4.65
2023-03-26T06:59:08.525Z,7.45
2023-03-26T07:01:35.849Z,4.35
2023-03-26T07:04:03.304Z,7.00
2023-03-26T07:06:30.515Z,4.38
2023-03-26T07:08:57.710Z,6.20
2023-03-26T07:11:26.983Z,4.85
2023-03-26T07:13:56.260Z,4.82
2023-03-26T07:16:23.784Z,5.90
2023-03-26T07:18:51.445Z,5.15
2023-03-26T07:21:19.855Z,4.63
2023-03-26T07:23:47.265Z,4.90
2023-03-26T07:26:35.425Z,4.38
2023-03-26T07:29:05.628Z,6.32
2023-03-26T07:31:43.018Z,5.53
2023-03-26T07:34:29.182Z,6.90
2023-03-26T07:39:34.852Z,7.22
2023-03-26T07:42:21.132Z,5.30
2023-03-26T07:44:54.534Z,6.22
2023-03-26T07:47:28.432Z,6.68
2023-03-26T07:49:57.922Z,8.65
2023-03-26T07:52:25.913Z,6.20
2023-03-26T07:54:53.375Z,6.75
2023-03-26T07:57:41.605Z,8.90
2023-03-26T08:00:16.072Z,6.63
2023-03-26T08:03:02.094Z,10.15
2023-03-26T08:07:59.515Z,8.43
2023-03-26T08:10:46.784Z,10.77
2023-03-26T08:13:36.196Z,6.80
2023-03-26T08:16:23.609Z,8.57
2023-03-26T08:18:56.662Z,10.50
2023-03-26T08:21:27.201Z,9.35
2023-03-26T08:24:06.681Z,8.48
2023-03-26T08:26:44.102Z,9.52
2023-03-26T08:29:18.283Z,8.35
2023-03-26T08:31:47.182Z,8.32
2023-03-26T08:34:14.513Z,6.50
2023-03-26T08:36:42.210Z,11.05
2023-03-26T08:39:09.436Z,7.60
2023-03-26T08:41:55.253Z,8.70
2023-03-26T08:44:37.905Z,6.25
2023-03-26T08:47:12.822Z,6.03
2023-03-26T08:50:06.471Z,8.77
2023-03-26T08:52:42.755Z,6.68
2023-03-26T08:55:28.508Z,5.90
2023-03-26T08:58:10.135Z,5.72
2023-03-26T09:00:40.837Z,7.00
2023-03-26T09:03:27.902Z,6.75
2023-03-26T09:06:13.905Z,10.55
2023-03-26T09:08:54.421Z,11.50
2023-03-26T09:11:40.202Z,6.57
2023-03-26T09:14:13.333Z,7.60
2023-03-26T09:16:46.789Z,8.25
2023-03-26T09:19:16.694Z,7.25
2023-03-26T09:21:46.807Z,6.30
2023-03-26T09:24:32.815Z,7.75
2023-03-26T09:27:09.108Z,8.43
2023-03-26T09:29:56.920Z,7.78
2023-03-26T09:32:30.780Z,7.07
2023-03-26T09:35:12.584Z,8.57
2023-03-26T09:37:56.434Z,10.27
2023-03-26T09:40:37.348Z,8.55
2023-03-26T09:43:24.036Z,9.23
2023-03-26T09:45:51.177Z,11.40
2023-03-26T09:48:21.505Z,7.75
2023-03-26T09:50:48.687Z,12.13
2023-03-26T09:53:24.001Z,9.63
2023-03-26T09:55:54.537Z,8.95
2023-03-26T09:58:21.850Z,11.18
2023-03-26T10:00:53.103Z,10.27
2023-03-26T10:03:24.730Z,11.45
2023-03-26T10:05:53.069Z,12.50
2023-03-26T10:08:32.178Z,11.85
2023-03-26T10:11:12.204Z,13.70
2023-03-26T10:13:51.716Z,11.73
2023-03-26T10:16:29.066Z,13.70
2023-03-26T10:19:14.920Z,10.98
2023-03-26T10:21:47.021Z,12.70
2023-03-26T10:24:32.894Z,16.33
2023-03-26T10:27:16.420Z,15.10
2023-03-26T10:29:43.616Z,16.95
2023-03-26T10:32:30.462Z,15.38
2023-03-26T10:35:03.455Z,19.45
2023-03-26T10:37:37.320Z,15.13
2023-03-26T10:40:13.906Z,16.55
2023-03-26T10:42:47.172Z,14.00
2023-03-26T10:45:14.733Z,17.45
2023-03-26T10:47:51.546Z,15.55
2023-03-26T10:50:37.689Z,13.35
2023-03-26T10:55:32.058Z,11.38
2023-03-26T10:58:12.511Z,12.02
2023-03-26T11:00:51.414Z,16.48
2023-03-26T11:03:27.176Z,13.40
2023-03-26T11:08:32.182Z,178.55
2023-03-26T11:11:00.696Z,117.32
2023-03-26T11:13:47.101Z,94.95
2023-03-26T11:16:25.472Z,85.07
2023-03-26T11:19:05.084Z,74.00
2023-03-26T11:21:59.240Z,60.35
2023-03-26T11:24:26.350Z,57.70
2023-03-26T11:26:56.081Z,63.85
2023-03-26T11:29:34.827Z,56.65
2023-03-26T11:32:22.158Z,52.20
2023-03-26T11:34:58.665Z,46.85
2023-03-26T11:37:30.084Z,39.50
2023-03-26T11:39:58.646Z,48.88
2023-03-26T11:42:26.140Z,36.80
2023-03-26T11:45:01.664Z,35.95
2023-03-26T11:47:36.206Z,35.30
2023-03-26T11:50:04.599Z,31.52
2023-03-26T11:52:31.816Z,28.13
2023-03-26T11:54:59.408Z,27.75
2023-03-26T11:57:28.619Z,27.85
2023-03-26T11:59:59.428Z,27.58
2023-03-26T12:02:34.010Z,24.90
2023-03-26T12:05:21.057Z,22.57
2023-03-26T12:07:51.309Z,25.23
2023-03-26T12:10:26.822Z,20.85
2023-03-26T12:12:55.905Z,22.42
2023-03-26T12:15:23.361Z,23.27
2023-03-26T12:17:53.690Z,21.63
2023-03-26T12:20:27.224Z,23.90
2023-03-26T12:22:59.442Z,26.33
2023-03-26T12:25:26.788Z,21.23
2023-03-26T12:28:04.859Z,21.80
2023-03-26T12:30:39.629Z,24.02
2023-03-26T12:33:08.812Z,22.40
2023-03-26T12:35:36.665Z,26.10
2023-03-26T12:38:34.797Z,21.83
2023-03-26T12:41:08.535Z,27.73
2023-03-26T12:44:54.026Z,19.88
2023-03-26T12:47:58.244Z,21.42
2023-03-26T12:49:34.580Z,23.52
2023-03-26T12:52:20.630Z,22.55
2023-03-26T12:54:48.388Z,28.80
2023-03-26T12:57:26.569Z,30.08
2023-03-26T12:59:57.116Z,20.30
2023-03-26T13:02:43.955Z,24.77
2023-03-26T13:05:14.757Z,20.95
2023-03-26T13:07:54.683Z,26.45
2023-03-26T13:10:29.297Z,26.02
2023-03-26T13:13:15.415Z,21.48
2023-03-26T13:18:21.950Z,21.13
2023-03-26T13:20:49.113Z,16.88
2023-03-26T13:23:38.372Z,22.13
2023-03-26T13:26:14.757Z,24.50
2023-03-26T13:28:42.012Z,21.58
2023-03-26T13:31:15.197Z,19.45
2023-03-26T13:34:00.614Z,19.23
2023-03-26T13:36:34.468Z,21.85
2023-03-26T13:39:05.012Z,23.55
2023-03-26T13:41:32.203Z,20.27
2023-03-26T13:44:18.433Z,20.00
2023-03-26T13:49:15.600Z,23.10
2023-03-26T13:51:50.904Z,17.90
2023-03-26T13:54:24.372Z,22.88
2023-03-26T13:56:55.849Z,21.08
2023-03-26T13:59:23.125Z,28.52
2023-03-26T14:01:53.990Z,23.02
2023-03-26T14:04:24.229Z,28.73
2023-03-26T14:07:06.373Z,29.08
2023-03-26T14:09:33.598Z,29.90
2023-03-26T14:12:20.887Z,27.13
2023-03-26T14:14:57.666Z,31.42
2023-03-26T14:17:40.157Z,28.20
2023-03-26T14:20:22.457Z,33.03
2023-03-26T14:22:49.648Z,25.63
2023-03-26T14:25:32.999Z,33.67
2023-03-26T14:28:18.963Z,24.33
2023-03-26T14:31:09.640Z,28.65
2023-03-26T14:33:45.993Z,27.63
2023-03-26T14:36:16.524Z,26.95
2023-03-26T14:38:49.734Z,32.90
2023-03-26T14:41:29.765Z,26.17
2023-03-26T14:44:15.661Z,27.27
2023-03-26T14:46:54.281Z,26.08
2023-03-26T14:49:39.820Z,22.13
2023-03-26T14:52:19.378Z,23.10
2023-03-26T14:54:49.148Z,26.00
2023-03-26T14:57:19.085Z,23.52
2023-03-26T15:00:13.977Z,21.25
2023-03-26T15:02:59.087Z,28.08
2023-03-26T15:05:29.277Z,23.35
2023-03-26T15:08:11.877Z,22.42
2023-03-26T15:10:49.596Z,27.55
2023-03-26T15:13:32.045Z,22.17
2023-03-26T15:16:18.030Z,28.73
2023-03-26T15:18:45.409Z,22.15
2023-03-26T15:21:22.028Z,23.40
2023-03-26T15:23:49.232Z,28.10
2023-03-26T15:26:37.090Z,24.67
2023-03-26T15:29:08.461Z,21.60
2023-03-26T15:31:47.786Z,18.75
2023-03-26T15:34:15.077Z,29.83
2023-03-26T15:36:45.340Z,26.13
2023-03-26T15:39:31.156Z,21.48
2023-03-26T15:42:17.968Z,20.58
2023-03-26T15:44:53.992Z,16.60
2023-03-26T15:47:51.462Z,24.35
2023-03-26T15:50:24.503Z,20.20
2023-03-26T15:52:57.938Z,19.50
2023-03-26T15:55:28.040Z,21.42
2023-03-26T15:58:03.519Z,21.65
2023-03-26T16:00:35.125Z,18.02
2023-03-26T16:03:11.011Z,21.40
2023-03-26T16:05:46.601Z,21.17
2023-03-26T16:08:38.676Z,21.23
2023-03-26T16:11:12.718Z,20.92
2023-03-26T16:13:41.360Z,22.20
2023-03-26T16:16:22.758Z,18.13
2023-03-26T16:18:58.461Z,17.98
2023-03-26T16:24:10.217Z,16.45
2023-03-26T16:26:37.421Z,21.10
2023-03-26T16:29:22.321Z,21.63
2023-03-26T16:32:09.123Z,17.27
2023-03-26T16:35:02.871Z,16.52
2023-03-26T16:37:36.568Z,13.98
2023-03-26T16:40:20.485Z,13.77
2023-03-26T16:42:52.690Z,17.25
2023-03-26T16:45:29.231Z,15.25
2023-03-26T16:48:07.173Z,17.27
2023-03-26T16:50:43.903Z,16.95
2023-03-26T16:53:13.901Z,14.43
2023-03-26T16:55:47.712Z,17.58
2023-03-26T16:58:31.884Z,14.98
2023-03-26T17:01:08.461Z,18.00
2023-03-26T17:03:59.182Z,14.77
2023-03-26T17:06:45.755Z,15.25
2023-03-26T17:09:16.025Z,16.55
2023-03-26T17:11:49.296Z,13.68
2023-03-26T17:14:35.325Z,14.27
2023-03-26T17:17:08.625Z,15.90
2023-03-26T17:20:02.025Z,14.32
2023-03-26T17:22:38.026Z,14.75
2023-03-26T17:25:11.494Z,15.27
2023-03-26T17:27:57.560Z,13.73
2023-03-26T17:32:58.809Z,12.52
2023-03-26T17:35:46.042Z,12.68
2023-03-26T17:38:19.096Z,14.65
2023-03-26T17:40:48.128Z,12.90
2023-03-26T17:43:44.775Z,11.32
2023-03-26T17:48:41.863Z,13.57
2023-03-26T17:51:21.289Z,13.60
2023-03-26T17:53:49.067Z,18.25
2023-03-26T17:56:19.520Z,14.55
2023-03-26T17:58:52.660Z,11.18
2023-03-26T18:01:37.054Z,11.52
2023-03-26T18:04:06.919Z,13.40
2023-03-26T18:06:37.092Z,12.75
2023-03-26T18:09:19.335Z,12.43
2023-03-26T18:11:52.599Z,11.95
2023-03-26T18:14:32.647Z,13.48
2023-03-26T18:17:01.127Z,13.48
2023-03-26T18:19:28.779Z,11.20
2023-03-26T18:22:00.305Z,9.93
2023-03-26T18:24:29.246Z,9.52
2023-03-26T18:27:02.733Z,8.77
2023-03-26T18:29:31.347Z,11.90
2023-03-26T18:32:02.926Z,13.38
2023-03-26T18:34:34.119Z,13.93
2023-03-26T18:37:14.883Z,16.25
2023-03-26T18:39:43.068Z,17.20
2023-03-26T18:42:22.845Z,13.35
2023-03-26T18:44:52.483Z,14.13
2023-03-26T18:47:20.438Z,18.73
2023-03-26T18:49:48.773Z,13.48
2023-03-26T18:52:17.726Z,15.38
2023-03-26T18:54:48.759Z,14.02
2023-03-26T18:57:23.974Z,16.40
2023-03-26T18:59:52.199Z,15.63
2023-03-26T19:02:20.606Z,18.48
2023-03-26T19:04:49.439Z,16.92
2023-03-26T19:07:18.217Z,23.00
2023-03-26T19:09:45.870Z,12.35
2023-03-26T19:12:16.245Z,12.70
2023-03-26T19:14:55.067Z,18.45
2023-03-26T19:17:22.794Z,19.17
2023-03-26T19:19:51.032Z,12.40
2023-03-26T19:22:19.079Z,16.73
2023-03-26T19:24:47.230Z,13.95
2023-03-26T19:27:14.465Z,14.93
2023-03-26T19:29:42.980Z,12.93
2023-03-26T19:32:17.478Z,13.45
2023-03-26T19:34:45.617Z,17.10
2023-03-26T19:37:26.440Z,21.92
2023-03-26T19:39:54.479Z,18.15
2023-03-26T19:42:44.144Z,16.63
2023-03-26T19:45:16.561Z,14.15
2023-03-26T19:47:52.118Z,23.17
2023-03-26T19:50:27.166Z,30.15
2023-03-26T19:53:15.310Z,18.25
2023-03-26T19:55:52.808Z,20.30
2023-03-26T19:58:19.989Z,17.10
2023-03-26T20:00:47.183Z,15.48
2023-03-26T20:03:16.622Z,16.85
2023-03-26T20:05:43.933Z,23.25
2023-03-26T20:08:15.023Z,23.90
2023-03-26T20:10:43.182Z,15.27
2023-03-26T20:13:15.929Z,15.95
2023-03-26T20:15:45.346Z,15.85
2023-03-26T20:18:12.680Z,19.33
2023-03-26T20:20:41.180Z,17.45
2023-03-26T20:23:17.671Z,20.92
2023-03-26T20:25:51.599Z,15.18
2023-03-26T20:28:19.644Z,20.33
2023-03-26T20:30:47.939Z,17.90
2023-03-26T20:33:25.559Z,17.85
2023-03-26T20:35:56.223Z,21.05
2023-03-26T20:38:36.551Z,17.92
2023-03-26T20:41:06.969Z,16.40
2023-03-26T20:43:34.447Z,15.73
2023-03-26T20:46:01.684Z,17.75
2023-03-26T20:48:28.910Z,19.30
2023-03-26T20:50:57.131Z,23.17
2023-03-26T20:53:24.967Z,15.82
2023-03-26T20:55:52.268Z,16.90
2023-03-26T20:58:31.366Z,18.45
2023-03-26T21:01:00.772Z,20.52
2023-03-26T21:03:28.056Z,22.40
2023-03-26T21:05:55.300Z,15.38
2023-03-26T21:08:30.055Z,16.45
2023-03-26T21:11:01.921Z,17.60
2023-03-26T21:13:40.896Z,22.48
2023-03-26T21:16:08.448Z,16.40
2023-03-26T21:18:37.406Z,16.55
2023-03-26T21:21:18.227Z,18.58
2023-03-26T21:23:59.095Z,18.33
2023-03-26T21:26:29.733Z,15.55
2023-03-26T21:28:57.003Z,21.80
2023-03-26T21:31:24.668Z,23.33
2023-03-26T21:33:52.137Z,20.13
2023-03-26T21:36:20.159Z,24.33
2023-03-26T21:38:47.550Z,21.73
2023-03-26T21:41:23.942Z,16.27
2023-03-26T21:43:51.826Z,17.30
2023-03-26T21:46:19.339Z,22.58
2023-03-26T21:48:46.635Z,21.85
2023-03-26T21:51:15.173Z,18.65
2023-03-26T21:53:43.200Z,16.98
2023-03-26T21:56:35.433Z,21.40
2023-03-26T21:59:02.612Z,19.05
2023-03-26T22:01:34.948Z,18.42
2023-03-26T22:04:08.598Z,19.33
2023-03-26T22:06:55.366Z,17.15
2023-03-26T22:09:33.921Z,19.38
2023-03-26T22:12:03.490Z,21.02
2023-03-26T22:14:30.770Z,15.45
2023-03-26T22:16:58.049Z,15.80
2023-03-26T22:19:25.885Z,15.43
2023-03-26T22:21:54.317Z,16.25
2023-03-26T22:24:21.492Z,16.70
2023-03-26T22:26:48.650Z,17.85
2023-03-26T22:29:15.879Z,17.58
2023-03-26T22:31:43.138Z,15.02
2023-03-26T22:34:10.345Z,14.98
2023-03-26T22:36:39.039Z,12.63
2023-03-26T22:39:07.567Z,15.65
2023-03-26T22:41:34.827Z,11.10
2023-03-26T22:44:16.922Z,12.50
2023-03-26T22:46:49.443Z,14.67
2023-03-26T22:49:16.909Z,15.52
2023-03-26T22:51:44.545Z,12.98
2023-03-26T22:54:12.131Z,12.00
2023-03-26T22:56:39.477Z,16.23
2023-03-26T22:59:06.689Z,14.18
2023-03-26T23:01:34.387Z,14.88
2023-03-26T23:04:01.722Z,13.75
2023-03-26T23:06:29.110Z,13.07
2023-03-26T23:08:57.031Z,18.40
2023-03-26T23:11:24.469Z,17.55
2023-03-26T23:13:51.816Z,15.10
2023-03-26T23:16:20.232Z,11.98
2023-03-26T23:18:47.832Z,11.88
2023-03-26T23:21:16.132Z,11.63
2023-03-26T23:23:43.447Z,9.20
2023-03-26T23:26:10.978Z,12.02
2023-03-26T23:28:38.724Z,14.27
2023-03-26T23:31:06.918Z,12.50
2023-03-26T23:33:35.600Z,11.05
2023-03-26T23:36:09.197Z,15.10
2023-03-26T23:38:44.229Z,9.30
2023-03-26T23:41:15.709Z,8.77
2023-03-26T23:43:54.295Z,10.52
2023-03-26T23:46:23.543Z,11.02
2023-03-26T23:48:51.193Z,13.68
2023-03-26T23:51:20.109Z,10.23
2023-03-26T23:53:47.937Z,8.85
2023-03-26T23:56:15.371Z,9.63
2023-03-26T23:58:42.963Z,8.50
